createdAt,value
2023-01-08T00:01:24.012Z,92.10
2023-01-08T00:03:50.813Z,91.91
2023-01-08T00:06:21.260Z,92.13
2023-01-08T00:08:47.950Z,90.61
2023-01-08T00:11:15.116Z,92.27
2023-01-08T00:13:41.992Z,92.18
2023-01-08T00:16:11.960Z,92.56
2023-01-08T00:18:38.843Z,92.57
2023-01-08T00:21:06.029Z,91.77
2023-01-08T00:23:33.277Z,91.53
2023-01-08T00:26:08.728Z,92.53
2023-01-08T00:28:36.137Z,89.59
2023-01-08T00:31:07.788Z,92.42
2023-01-08T00:33:35.250Z,92.30
2023-01-08T00:36:08.089Z,90.92
2023-01-08T00:38:34.721Z,93.22
2023-01-08T00:41:01.331Z,92.81
2023-01-08T00:43:27.861Z,92.41
2023-01-08T00:45:54.556Z,91.06
2023-01-08T00:48:27.685Z,92.11
2023-01-08T00:50:54.390Z,91.69
2023-01-08T00:53:22.247Z,91.74
2023-01-08T00:55:48.985Z,92.51
2023-01-08T00:58:15.900Z,92.56
2023-01-08T01:00:42.572Z,92.26
2023-01-08T01:03:09.099Z,92.09
2023-01-08T01:05:35.975Z,92.33
2023-01-08T01:08:02.570Z,92.38
2023-01-08T01:10:29.215Z,92.01
2023-01-08T01:12:55.760Z,92.61
2023-01-08T01:15:22.457Z,91.43
2023-01-08T01:17:49.065Z,92.09
2023-01-08T01:20:17.079Z,92.17
2023-01-08T01:22:43.739Z,92.45
2023-01-08T01:25:10.731Z,92.23
2023-01-08T01:27:37.362Z,92.00
2023-01-08T01:30:04.608Z,92.90
2023-01-08T01:32:31.396Z,93.19
2023-01-08T01:34:57.959Z,92.11
2023-01-08T01:37:24.769Z,92.08
2023-01-08T01:39:51.405Z,92.01
2023-01-08T01:42:38.335Z,93.50
2023-01-08T01:45:23.079Z,94.66
2023-01-08T01:47:59.803Z,94.19
2023-01-08T01:50:47.166Z,93.21
2023-01-08T01:53:35.345Z,94.91
2023-01-08T01:56:04.259Z,92.79
2023-01-08T01:58:32.308Z,90.58
2023-01-08T02:01:06.919Z,92.51
2023-01-08T02:03:36.769Z,91.93
2023-01-08T02:06:15.689Z,91.59
2023-01-08T02:09:03.240Z,94.27
2023-01-08T02:11:32.944Z,91.56
2023-01-08T02:14:11.797Z,92.61
2023-01-08T02:17:03.450Z,91.69
2023-01-08T02:19:36.660Z,90.53
2023-01-08T02:22:16.184Z,90.26
2023-01-08T02:24:52.967Z,89.65
2023-01-08T02:27:24.114Z,89.82
2023-01-08T02:29:53.266Z,89.12
2023-01-08T02:32:25.916Z,88.64
2023-01-08T02:34:53.692Z,89.33
2023-01-08T02:37:20.941Z,89.26
2023-01-08T02:40:19.936Z,92.17
2023-01-08T02:42:55.629Z,91.73
2023-01-08T02:45:46.808Z,90.44
2023-01-08T02:48:19.406Z,89.40
2023-01-08T02:50:59.133Z,90.66
2023-01-08T02:53:30.631Z,89.48
2023-01-08T02:56:08.278Z,90.30
2023-01-08T02:58:36.885Z,89.94
2023-01-08T03:01:06.625Z,89.86
2023-01-08T03:03:35.109Z,90.75
2023-01-08T03:06:08.986Z,91.07
2023-01-08T03:08:40.968Z,91.56
2023-01-08T03:11:10.859Z,91.53
2023-01-08T03:13:42.524Z,91.65
2023-01-08T03:16:15.444Z,91.62
2023-01-08T03:18:48.483Z,91.92
2023-01-08T03:21:17.580Z,91.10
2023-01-08T03:23:45.324Z,91.20
2023-01-08T03:26:15.574Z,91.61
2023-01-08T03:28:49.860Z,92.07
2023-01-08T03:31:18.039Z,91.64
2023-01-08T03:33:46.557Z,92.85
2023-01-08T03:36:17.085Z,91.53
2023-01-08T03:38:49.122Z,92.95
2023-01-08T03:41:20.776Z,92.86
2023-01-08T03:43:47.376Z,92.61
2023-01-08T03:46:28.092Z,94.11
2023-01-08T03:48:56.365Z,93.23
2023-01-08T03:51:22.990Z,93.57
2023-01-08T03:53:52.472Z,93.94
2023-01-08T03:56:18.952Z,93.16
2023-01-08T03:58:45.580Z,92.81
2023-01-08T04:01:12.238Z,92.92
2023-01-08T04:03:38.760Z,93.56
2023-01-08T04:06:05.570Z,94.01
2023-01-08T04:08:32.114Z,92.88
2023-01-08T04:10:58.680Z,93.42
2023-01-08T04:13:25.181Z,91.98
2023-01-08T04:15:52.044Z,93.27
2023-01-08T04:18:18.873Z,92.65
2023-01-08T04:20:46.947Z,93.13
2023-01-08T04:23:14.082Z,93.66
2023-01-08T04:25:40.911Z,95.60
2023-01-08T04:28:07.625Z,95.67
2023-01-08T04:30:34.243Z,94.42
2023-01-08T04:33:01.453Z,94.31
2023-01-08T04:35:28.023Z,94.78
2023-01-08T04:37:54.516Z,94.15
2023-01-08T04:40:21.052Z,94.27
2023-01-08T04:42:47.673Z,95.06
2023-01-08T04:45:14.305Z,94.77
2023-01-08T04:47:40.948Z,95.14
2023-01-08T04:50:07.959Z,95.93
2023-01-08T04:52:34.871Z,94.72
2023-01-08T04:55:01.641Z,95.22
2023-01-08T04:57:28.419Z,95.66
2023-01-08T04:59:54.987Z,94.96
2023-01-08T05:02:21.820Z,96.52
2023-01-08T05:04:48.543Z,95.41
2023-01-08T05:07:15.198Z,95.65
2023-01-08T05:09:41.717Z,95.63
2023-01-08T05:12:08.271Z,95.93
2023-01-08T05:14:34.925Z,94.76
2023-01-08T05:17:01.437Z,95.01
2023-01-08T05:19:28.066Z,95.16
2023-01-08T05:21:54.644Z,95.83
2023-01-08T05:24:21.221Z,95.25
2023-01-08T05:26:47.771Z,95.52
2023-01-08T05:29:14.368Z,95.28
2023-01-08T05:31:40.953Z,95.57
2023-01-08T05:34:07.730Z,95.72
2023-01-08T05:36:34.286Z,94.87
2023-01-08T05:39:00.880Z,96.15
2023-01-08T05:41:27.398Z,95.22
2023-01-08T05:43:54.003Z,95.21
2023-01-08T05:46:20.594Z,96.46
2023-01-08T05:48:47.377Z,95.60
2023-01-08T05:51:14.003Z,94.78
2023-01-08T05:53:40.466Z,94.97
2023-01-08T05:56:09.493Z,96.57
2023-01-08T05:58:36.894Z,95.80
2023-01-08T06:01:09.368Z,96.73
2023-01-08T06:03:36.604Z,95.98
2023-01-08T06:06:05.764Z,96.47
2023-01-08T06:08:33.246Z,96.41
2023-01-08T06:11:01.135Z,98.07
2023-01-08T06:13:28.411Z,96.98
2023-01-08T06:15:55.089Z,96.30
2023-01-08T06:18:21.692Z,96.40
2023-01-08T06:20:48.266Z,98.02
2023-01-08T06:23:14.902Z,96.89
2023-01-08T06:25:41.458Z,96.45
2023-01-08T06:28:08.445Z,96.24
2023-01-08T06:30:35.057Z,97.07
2023-01-08T06:33:02.154Z,96.52
2023-01-08T06:35:28.969Z,97.04
2023-01-08T06:37:56.457Z,96.86
2023-01-08T06:40:24.139Z,96.71
2023-01-08T06:42:50.788Z,96.97
2023-01-08T06:45:17.585Z,96.78
2023-01-08T06:47:44.112Z,96.69
2023-01-08T06:50:11.590Z,96.57
2023-01-08T06:52:38.728Z,96.73
2023-01-08T06:55:06.195Z,96.90
2023-01-08T06:57:32.944Z,97.11
2023-01-08T06:59:59.789Z,96.19
2023-01-08T07:02:26.490Z,97.94
2023-01-08T07:04:53.179Z,97.46
2023-01-08T07:07:19.635Z,97.51
2023-01-08T07:09:46.338Z,97.13
2023-01-08T07:12:16.413Z,97.47
2023-01-08T07:14:43.057Z,98.10
2023-01-08T07:17:12.709Z,97.83
2023-01-08T07:19:39.327Z,97.74
2023-01-08T07:22:06.053Z,97.49
2023-01-08T07:24:32.558Z,97.42
2023-01-08T07:26:59.052Z,97.84
2023-01-08T07:29:25.765Z,96.94
2023-01-08T07:31:52.251Z,97.43
2023-01-08T07:34:19.023Z,98.01
2023-01-08T07:36:45.610Z,97.50
2023-01-08T07:39:12.234Z,96.98
2023-01-08T07:41:38.719Z,97.60
2023-01-08T07:44:05.460Z,97.97
2023-01-08T07:46:32.245Z,97.65
2023-01-08T07:48:59.237Z,97.78
2023-01-08T07:51:25.904Z,97.21
2023-01-08T07:53:52.546Z,97.49
2023-01-08T07:56:19.287Z,98.23
2023-01-08T07:58:45.940Z,97.55
2023-01-08T08:01:12.743Z,97.69
2023-01-08T08:03:39.859Z,97.56
2023-01-08T08:06:07.121Z,97.29
2023-01-08T08:08:34.042Z,98.69
2023-01-08T08:11:01.340Z,98.45
2023-01-08T08:13:27.984Z,98.28
2023-01-08T08:15:54.667Z,98.05
2023-01-08T08:18:21.356Z,97.80
2023-01-08T08:20:49.391Z,97.73
2023-01-08T08:23:16.038Z,98.38
2023-01-08T08:25:43.358Z,98.38
2023-01-08T08:28:11.166Z,98.82
2023-01-08T08:30:40.654Z,98.06
2023-01-08T08:33:09.239Z,97.61
2023-01-08T08:35:36.240Z,98.39
2023-01-08T08:38:03.531Z,98.69
2023-01-08T08:40:30.798Z,97.55
2023-01-08T08:43:02.260Z,98.86
2023-01-08T08:45:29.616Z,98.26
2023-01-08T08:47:56.550Z,97.09
2023-01-08T08:50:23.787Z,97.90
2023-01-08T08:52:50.450Z,98.10
2023-01-08T08:55:17.983Z,98.63
2023-01-08T08:57:46.584Z,98.58
2023-01-08T09:00:14.457Z,98.80
2023-01-08T09:02:41.325Z,98.24
2023-01-08T09:05:08.633Z,98.25
2023-01-08T09:07:35.725Z,99.04
2023-01-08T09:10:02.800Z,98.03
2023-01-08T09:12:29.615Z,99.00
2023-01-08T09:14:57.349Z,98.62
2023-01-08T09:17:25.283Z,99.27
2023-01-08T09:19:52.077Z,98.71
2023-01-08T09:22:19.070Z,99.47
2023-01-08T09:24:45.706Z,99.72
2023-01-08T09:27:12.839Z,99.18
2023-01-08T09:29:39.381Z,99.84
2023-01-08T09:32:07.569Z,99.66
2023-01-08T09:34:36.338Z,100.00
2023-01-08T09:37:04.013Z,100.00
2023-01-08T09:39:31.120Z,100.00
2023-01-08T09:42:01.300Z,99.92
2023-01-08T09:44:33.973Z,100.00
2023-01-08T09:47:00.916Z,99.96
2023-01-08T09:49:39.696Z,99.78
2023-01-08T09:52:06.528Z,100.00
2023-01-08T09:54:33.047Z,99.20
2023-01-08T09:57:00.525Z,99.57
2023-01-08T09:59:27.264Z,99.24
2023-01-08T10:01:54.401Z,100.00
2023-01-08T10:04:27.023Z,98.67
2023-01-08T10:06:57.187Z,96.88
2023-01-08T10:09:29.759Z,97.49
2023-01-08T10:12:00.188Z,99.28
2023-01-08T10:14:38.501Z,100.00
2023-01-08T10:17:16.961Z,100.00
2023-01-08T10:19:45.856Z,98.88
2023-01-08T10:22:16.549Z,97.95
2023-01-08T10:24:43.417Z,96.21
2023-01-08T10:27:19.029Z,97.57
2023-01-08T10:29:45.883Z,97.50
2023-01-08T10:32:30.258Z,97.50
2023-01-08T10:34:58.478Z,94.99
2023-01-08T10:37:36.701Z,96.39
2023-01-08T10:40:23.955Z,100.00
2023-01-08T10:42:51.467Z,95.93
2023-01-08T10:45:24.021Z,94.87
2023-01-08T10:47:55.165Z,97.39
2023-01-08T10:50:31.328Z,98.13
2023-01-08T10:53:03.332Z,93.83
2023-01-08T10:55:32.627Z,98.62
2023-01-08T10:58:01.817Z,96.91
2023-01-08T11:00:31.605Z,97.83
2023-01-08T11:03:05.465Z,98.16
2023-01-08T11:05:37.867Z,98.15
2023-01-08T11:08:15.994Z,97.67
2023-01-08T11:10:42.539Z,96.89
2023-01-08T11:13:18.152Z,95.24
2023-01-08T11:15:44.681Z,95.85
2023-01-08T11:18:18.552Z,97.91
2023-01-08T11:20:46.404Z,98.81
2023-01-08T11:23:21.803Z,97.32
2023-01-08T11:25:57.355Z,99.78
2023-01-08T11:29:00.058Z,100.00
2023-01-08T11:31:36.925Z,98.46
2023-01-08T11:34:15.570Z,99.48
2023-01-08T11:37:02.618Z,96.83
2023-01-08T11:39:29.225Z,97.36
2023-01-08T11:42:52.873Z,99.80
2023-01-08T11:45:25.423Z,100.00
2023-01-08T11:48:14.463Z,100.00
2023-01-08T11:50:52.982Z,100.00
2023-01-08T11:53:24.512Z,100.00
2023-01-08T11:55:57.035Z,100.00
2023-01-08T11:58:29.745Z,100.00
2023-01-08T12:01:11.918Z,100.00
2023-01-08T12:03:44.887Z,100.00
2023-01-08T12:06:27.861Z,100.00
2023-01-08T12:09:00.442Z,100.00
2023-01-08T12:11:36.919Z,100.00
2023-01-08T12:14:13.568Z,100.00
2023-01-08T12:17:12.278Z,100.00
2023-01-08T12:20:02.527Z,100.00
2023-01-08T12:22:54.519Z,100.00
2023-01-08T12:25:47.733Z,100.00
2023-01-08T12:28:39.234Z,100.00
2023-01-08T12:31:37.930Z,100.00
2023-01-08T12:34:15.641Z,100.00
2023-01-08T12:36:54.131Z,100.00
2023-01-08T12:39:39.162Z,100.00
2023-01-08T12:42:16.832Z,100.00
2023-01-08T12:44:45.633Z,100.00
2023-01-08T12:47:21.359Z,100.00
2023-01-08T12:50:20.329Z,100.00
2023-01-08T12:53:12.940Z,100.00
2023-01-08T12:55:44.710Z,100.00
2023-01-08T12:58:46.333Z,100.00
2023-01-08T13:01:21.985Z,100.00
2023-01-08T13:03:49.289Z,100.00
2023-01-08T13:06:18.269Z,100.00
2023-01-08T13:08:49.566Z,100.00
2023-01-08T13:11:26.442Z,100.00
2023-01-08T13:14:08.905Z,100.00
2023-01-08T13:16:39.815Z,100.00
2023-01-08T13:19:21.823Z,100.00
2023-01-08T13:21:54.824Z,100.00
2023-01-08T13:24:28.650Z,100.00
2023-01-08T13:27:19.045Z,100.00
2023-01-08T13:29:49.838Z,100.00
2023-01-08T13:32:44.047Z,100.00
2023-01-08T13:35:16.703Z,100.00
2023-01-08T13:37:44.970Z,100.00
2023-01-08T13:40:36.500Z,100.00
2023-01-08T13:43:06.355Z,100.00
2023-01-08T13:45:33.631Z,100.00
2023-01-08T13:48:01.624Z,100.00
2023-01-08T13:50:30.474Z,100.00
2023-01-08T13:53:03.154Z,100.00
2023-01-08T13:55:34.670Z,100.00
2023-01-08T13:58:05.787Z,100.00
2023-01-08T14:00:43.718Z,100.00
2023-01-08T14:03:28.839Z,100.00
2023-01-08T14:06:17.394Z,100.00
2023-01-08T14:08:51.672Z,100.00
2023-01-08T14:11:21.368Z,100.00
2023-01-08T14:13:48.657Z,100.00
2023-01-08T14:16:17.593Z,100.00
2023-01-08T14:18:45.990Z,100.00
2023-01-08T14:21:14.284Z,100.00
2023-01-08T14:23:45.544Z,100.00
2023-01-08T14:26:31.982Z,100.00
2023-01-08T14:28:58.784Z,100.00
2023-01-08T14:31:27.288Z,100.00
2023-01-08T14:33:59.116Z,100.00
2023-01-08T14:36:26.555Z,100.00
2023-01-08T14:38:53.195Z,100.00
2023-01-08T14:42:00.051Z,100.00
2023-01-08T14:44:37.058Z,100.00
2023-01-08T14:47:07.141Z,100.00
2023-01-08T14:49:40.864Z,100.00
2023-01-08T14:52:12.958Z,100.00
2023-01-08T14:54:39.843Z,100.00
2023-01-08T14:57:06.591Z,100.00
2023-01-08T14:59:37.817Z,100.00
2023-01-08T15:02:07.891Z,100.00
2023-01-08T15:04:34.571Z,100.00
2023-01-08T15:07:08.994Z,100.00
2023-01-08T15:09:36.626Z,100.00
2023-01-08T15:12:06.377Z,100.00
2023-01-08T15:14:34.551Z,100.00
2023-01-08T15:17:10.421Z,100.00
2023-01-08T15:19:42.179Z,100.00
2023-01-08T15:22:22.775Z,100.00
2023-01-08T15:25:15.826Z,100.00
2023-01-08T15:27:42.836Z,100.00
2023-01-08T15:30:26.260Z,100.00
2023-01-08T15:32:52.970Z,100.00
2023-01-08T15:35:19.572Z,100.00
2023-01-08T15:37:46.372Z,100.00
2023-01-08T15:40:13.051Z,100.00
2023-01-08T15:42:58.500Z,100.00
2023-01-08T15:45:29.979Z,100.00
2023-01-08T15:47:56.688Z,100.00
2023-01-08T15:50:25.795Z,100.00
2023-01-08T15:52:52.976Z,100.00
2023-01-08T15:55:22.150Z,100.00
2023-01-08T15:57:49.185Z,100.00
2023-01-08T16:00:17.832Z,100.00
2023-01-08T16:02:47.320Z,100.00
2023-01-08T16:05:15.256Z,100.00
2023-01-08T16:07:42.039Z,100.00
2023-01-08T16:10:09.187Z,100.00
2023-01-08T16:12:36.264Z,100.00
2023-01-08T16:15:02.903Z,100.00
2023-01-08T16:17:30.241Z,100.00
2023-01-08T16:19:56.717Z,100.00
2023-01-08T16:22:23.298Z,100.00
2023-01-08T16:24:49.809Z,100.00
2023-01-08T16:27:16.339Z,100.00
2023-01-08T16:29:42.843Z,100.00
2023-01-08T16:32:09.655Z,100.00
2023-01-08T16:34:36.351Z,100.00
2023-01-08T16:37:03.127Z,100.00
2023-01-08T16:39:29.880Z,100.00
2023-01-08T16:41:56.368Z,100.00
2023-01-08T16:44:27.051Z,100.00
2023-01-08T16:46:53.958Z,100.00
2023-01-08T16:49:20.774Z,100.00
2023-01-08T16:51:47.740Z,100.00
2023-01-08T16:54:15.869Z,100.00
2023-01-08T16:56:42.737Z,100.00
2023-01-08T16:59:22.802Z,100.00
2023-01-08T17:01:53.516Z,100.00
2023-01-08T17:04:20.653Z,100.00
2023-01-08T17:06:47.258Z,100.00
2023-01-08T17:09:14.763Z,100.00
2023-01-08T17:11:42.025Z,100.00
2023-01-08T17:14:09.397Z,100.00
2023-01-08T17:16:36.261Z,100.00
2023-01-08T17:19:02.903Z,100.00
2023-01-08T17:21:29.414Z,100.00
2023-01-08T17:23:56.035Z,100.00
2023-01-08T17:26:22.608Z,100.00
2023-01-08T17:28:49.048Z,100.00
2023-01-08T17:31:19.740Z,100.00
2023-01-08T17:33:50.362Z,100.00
2023-01-08T17:36:22.842Z,100.00
2023-01-08T17:38:50.791Z,100.00
2023-01-08T17:41:37.216Z,100.00
2023-01-08T17:44:08.267Z,100.00
2023-01-08T17:46:36.271Z,100.00
2023-01-08T17:49:04.172Z,100.00
2023-01-08T17:51:32.458Z,100.00
2023-01-08T17:53:59.797Z,100.00
2023-01-08T17:56:26.953Z,100.00
2023-01-08T17:58:53.530Z,100.00
2023-01-08T18:01:20.388Z,100.00
2023-01-08T18:03:47.197Z,100.00
2023-01-08T18:06:14.240Z,100.00
2023-01-08T18:08:41.320Z,100.00
2023-01-08T18:11:10.729Z,100.00
2023-01-08T18:13:37.864Z,100.00
2023-01-08T18:16:08.180Z,100.00
2023-01-08T18:18:35.449Z,100.00
2023-01-08T18:21:02.241Z,100.00
2023-01-08T18:23:29.236Z,100.00
2023-01-08T18:25:55.851Z,100.00
2023-01-08T18:28:22.444Z,100.00
2023-01-08T18:30:48.911Z,100.00
2023-01-08T18:33:15.901Z,100.00
2023-01-08T18:35:42.483Z,100.00
2023-01-08T18:38:18.296Z,100.00
2023-01-08T18:40:45.852Z,100.00
2023-01-08T18:43:12.746Z,100.00
2023-01-08T18:45:39.540Z,100.00
2023-01-08T18:48:06.856Z,100.00
2023-01-08T18:50:33.415Z,100.00
2023-01-08T18:53:00.018Z,100.00
2023-01-08T18:55:26.561Z,100.00
2023-01-08T18:57:53.391Z,100.00
2023-01-08T19:00:20.822Z,100.00
2023-01-08T19:02:47.436Z,100.00
2023-01-08T19:05:14.281Z,100.00
2023-01-08T19:07:41.441Z,100.00
2023-01-08T19:10:10.470Z,100.00
2023-01-08T19:12:37.211Z,100.00
2023-01-08T19:15:04.101Z,100.00
2023-01-08T19:17:31.656Z,100.00
2023-01-08T19:19:58.427Z,100.00
2023-01-08T19:22:27.068Z,100.00
2023-01-08T19:24:54.351Z,100.00
2023-01-08T19:27:21.221Z,100.00
2023-01-08T19:29:47.962Z,100.00
2023-01-08T19:32:14.585Z,100.00
2023-01-08T19:34:41.685Z,100.00
2023-01-08T19:37:08.886Z,100.00
2023-01-08T19:39:35.725Z,100.00
2023-01-08T19:42:20.884Z,100.00
2023-01-08T19:44:47.463Z,100.00
2023-01-08T19:47:14.045Z,100.00
2023-01-08T19:49:46.437Z,100.00
2023-01-08T19:52:14.561Z,100.00
2023-01-08T19:54:41.700Z,100.00
2023-01-08T19:57:08.712Z,100.00
2023-01-08T19:59:35.494Z,100.00
2023-01-08T20:02:02.276Z,100.00
2023-01-08T20:04:30.632Z,100.00
2023-01-08T20:06:58.119Z,100.00
2023-01-08T20:09:24.759Z,100.00
2023-01-08T20:11:51.449Z,100.00
2023-01-08T20:14:20.706Z,100.00
2023-01-08T20:16:47.617Z,100.00
2023-01-08T20:19:14.124Z,100.00
2023-01-08T20:21:40.649Z,100.00
2023-01-08T20:24:11.040Z,100.00
2023-01-08T20:26:38.583Z,100.00
2023-01-08T20:29:05.905Z,100.00
2023-01-08T20:31:34.447Z,100.00
2023-01-08T20:34:04.002Z,100.00
2023-01-08T20:36:32.951Z,100.00
2023-01-08T20:39:02.817Z,100.00
2023-01-08T20:41:29.591Z,100.00
2023-01-08T20:43:56.609Z,100.00
2023-01-08T20:46:28.438Z,100.00
2023-01-08T20:48:57.206Z,100.00
2023-01-08T20:51:23.771Z,100.00
2023-01-08T20:53:50.486Z,100.00
2023-01-08T20:56:17.263Z,100.00
2023-01-08T20:58:46.257Z,100.00
2023-01-08T21:01:21.752Z,100.00
2023-01-08T21:03:49.968Z,100.00
2023-01-08T21:06:19.586Z,100.00
2023-01-08T21:08:48.507Z,100.00
2023-01-08T21:11:15.959Z,100.00
2023-01-08T21:13:42.991Z,100.00
2023-01-08T21:16:13.560Z,100.00
2023-01-08T21:18:47.124Z,100.00
2023-01-08T21:21:19.490Z,100.00
2023-01-08T21:23:47.225Z,100.00
2023-01-08T21:26:15.853Z,100.00
2023-01-08T21:28:43.771Z,100.00
2023-01-08T21:31:13.340Z,100.00
2023-01-08T21:33:40.860Z,100.00
2023-01-08T21:36:15.397Z,100.00
2023-01-08T21:38:43.633Z,100.00
2023-01-08T21:41:33.443Z,100.00
2023-01-08T21:44:20.076Z,100.00
2023-01-08T21:46:47.071Z,100.00
2023-01-08T21:49:13.685Z,100.00
2023-01-08T21:51:58.702Z,100.00
2023-01-08T21:54:25.259Z,100.00
2023-01-08T21:56:51.758Z,100.00
2023-01-08T21:59:18.389Z,100.00
2023-01-08T22:01:45.889Z,100.00
2023-01-08T22:04:12.632Z,100.00
2023-01-08T22:06:39.197Z,100.00
2023-01-08T22:09:05.848Z,100.00
2023-01-08T22:11:32.325Z,100.00
2023-01-08T22:13:59.971Z,100.00
2023-01-08T22:16:26.581Z,100.00
2023-01-08T22:18:53.098Z,100.00
2023-01-08T22:21:19.859Z,100.00
2023-01-08T22:23:46.411Z,100.00
2023-01-08T22:26:13.772Z,100.00
2023-01-08T22:28:40.727Z,100.00
2023-01-08T22:31:10.169Z,100.00
2023-01-08T22:33:37.462Z,100.00
2023-01-08T22:36:06.520Z,100.00
2023-01-08T22:38:33.938Z,100.00
2023-01-08T22:41:00.774Z,100.00
2023-01-08T22:43:27.338Z,100.00
2023-01-08T22:45:56.251Z,100.00
2023-01-08T22:48:23.326Z,100.00
2023-01-08T22:50:50.140Z,100.00
2023-01-08T22:53:16.931Z,100.00
2023-01-08T22:55:48.439Z,100.00
2023-01-08T22:58:16.332Z,100.00
2023-01-08T23:00:43.595Z,100.00
2023-01-08T23:03:10.365Z,100.00
2023-01-08T23:05:36.990Z,100.00
2023-01-08T23:08:04.015Z,100.00
2023-01-08T23:10:30.869Z,100.00
2023-01-08T23:12:57.500Z,100.00
2023-01-08T23:15:24.275Z,100.00
2023-01-08T23:17:52.364Z,100.00
2023-01-08T23:20:20.759Z,100.00
2023-01-08T23:22:48.943Z,100.00
2023-01-08T23:25:16.290Z,100.00
2023-01-08T23:27:44.758Z,100.00
2023-01-08T23:30:11.965Z,100.00
2023-01-08T23:32:38.849Z,100.00
2023-01-08T23:35:05.761Z,100.00
2023-01-08T23:37:34.351Z,100.00
2023-01-08T23:40:00.846Z,100.00
2023-01-08T23:42:29.272Z,100.00
2023-01-08T23:44:55.850Z,100.00
2023-01-08T23:47:22.410Z,100.00
2023-01-08T23:49:49.035Z,100.00
2023-01-08T23:52:15.633Z,100.00
2023-01-08T23:54:42.164Z,100.00
2023-01-08T23:57:08.670Z,100.00
2023-01-08T23:59:35.235Z,100.00
